createdAt,value
2019-03-29T00:00:12.247Z,15.53
2019-03-29T00:02:43.284Z,21.10
2019-03-29T00:05:12.231Z,19.33
2019-03-29T00:07:41.933Z,20.93
2019-03-29T00:10:11.091Z,17.93
2019-03-29T00:12:40.095Z,15.63
2019-03-29T00:15:09.095Z,22.43
2019-03-29T00:17:38.242Z,17.23
2019-03-29T00:20:10.371Z,18.10
2019-03-29T00:22:39.506Z,18.60
2019-03-29T00:25:10.982Z,23.60
2019-03-29T00:27:40.767Z,18.47
2019-03-29T00:30:10.166Z,18.70
2019-03-29T00:32:39.081Z,21.43
2019-03-29T00:35:08.361Z,17.13
2019-03-29T00:37:37.338Z,24.67
2019-03-29T00:40:07.015Z,18.43
2019-03-29T00:42:37.289Z,17.87
2019-03-29T00:45:06.954Z,17.53
2019-03-29T00:47:35.963Z,18.47
2019-03-29T00:50:05.464Z,18.20
2019-03-29T00:52:34.390Z,20.47
2019-03-29T00:55:03.438Z,15.23
2019-03-29T00:57:32.367Z,21.77
2019-03-29T01:00:01.347Z,20.50
2019-03-29T01:02:30.198Z,22.73
2019-03-29T01:04:59.195Z,23.77
2019-03-29T01:07:28.074Z,19.27
2019-03-29T01:09:58.189Z,20.20
2019-03-29T01:12:27.153Z,18.63
2019-03-29T01:14:56.201Z,19.80
2019-03-29T01:17:25.123Z,20.43
2019-03-29T01:19:54.338Z,19.67
2019-03-29T01:22:23.409Z,20.27
2019-03-29T01:24:52.380Z,17.43
2019-03-29T01:27:21.375Z,23.83
2019-03-29T01:29:50.324Z,21.77
2019-03-29T01:32:19.204Z,20.10
2019-03-29T01:34:48.107Z,23.60
2019-03-29T01:37:17.015Z,21.67
2019-03-29T01:39:45.885Z,19.43
2019-03-29T01:42:15.973Z,20.97
2019-03-29T01:44:44.937Z,22.97
2019-03-29T01:47:13.898Z,19.97
2019-03-29T01:49:42.783Z,18.33
2019-03-29T01:52:11.762Z,22.23
2019-03-29T01:54:40.775Z,19.90
2019-03-29T01:57:09.632Z,20.63
2019-03-29T01:59:38.536Z,20.27
2019-03-29T02:02:07.497Z,15.53
2019-03-29T02:04:36.338Z,16.43
2019-03-29T02:07:05.296Z,18.87
2019-03-29T02:09:34.227Z,22.03
2019-03-29T02:12:03.356Z,17.97
2019-03-29T02:14:32.334Z,18.30
2019-03-29T02:17:01.288Z,19.87
2019-03-29T02:19:30.337Z,21.70
2019-03-29T02:21:59.416Z,18.57
2019-03-29T02:24:28.871Z,20.50
2019-03-29T02:26:57.826Z,19.00
2019-03-29T02:29:26.867Z,25.57
2019-03-29T02:31:57.040Z,18.97
2019-03-29T02:34:26.164Z,21.13
2019-03-29T02:36:56.096Z,23.13
2019-03-29T02:39:26.845Z,23.00
2019-03-29T02:41:55.904Z,19.70
2019-03-29T02:44:25.090Z,17.67
2019-03-29T02:46:54.273Z,21.53
2019-03-29T02:49:23.270Z,20.00
2019-03-29T02:51:52.257Z,21.50
2019-03-29T02:54:21.137Z,23.40
2019-03-29T02:56:49.981Z,21.03
2019-03-29T02:59:18.865Z,23.67
2019-03-29T03:01:47.777Z,22.60
2019-03-29T03:04:17.319Z,25.03
2019-03-29T03:06:46.282Z,20.67
2019-03-29T03:09:15.221Z,21.23
2019-03-29T03:11:44.107Z,23.37
2019-03-29T03:14:13.245Z,24.93
2019-03-29T03:16:42.332Z,24.90
2019-03-29T03:19:12.227Z,25.27
2019-03-29T03:21:41.206Z,24.73
2019-03-29T03:24:10.337Z,26.43
2019-03-29T03:26:39.181Z,27.97
2019-03-29T03:29:08.094Z,28.90
2019-03-29T03:31:36.973Z,25.47
2019-03-29T03:34:05.993Z,31.53
2019-03-29T03:36:34.926Z,33.70
2019-03-29T03:39:06.314Z,35.67
2019-03-29T03:41:36.332Z,35.83
2019-03-29T03:44:06.238Z,35.73
2019-03-29T03:46:35.189Z,38.90
2019-03-29T03:49:04.218Z,44.90
2019-03-29T03:51:33.656Z,42.57
2019-03-29T03:54:02.695Z,48.27
2019-03-29T03:56:32.271Z,54.27
2019-03-29T03:59:02.598Z,49.00
2019-03-29T04:01:31.504Z,47.33
2019-03-29T04:04:00.363Z,46.70
2019-03-29T04:06:29.285Z,47.10
2019-03-29T04:08:58.127Z,46.77
2019-03-29T04:11:27.121Z,46.07
2019-03-29T04:13:56.010Z,51.87
2019-03-29T04:16:25.022Z,42.37
2019-03-29T04:18:53.894Z,43.00
2019-03-29T04:21:22.752Z,44.90
2019-03-29T04:23:51.728Z,50.67
2019-03-29T04:26:20.864Z,44.33
2019-03-29T04:29:03.375Z,44.57
2019-03-29T04:31:20.549Z,49.03
2019-03-29T04:33:49.447Z,46.00
2019-03-29T04:36:19.456Z,50.03
2019-03-29T04:38:48.598Z,42.30
2019-03-29T04:41:18.697Z,46.97
2019-03-29T04:43:47.608Z,44.87
2019-03-29T04:46:16.633Z,44.43
2019-03-29T04:48:45.553Z,48.30
2019-03-29T04:51:14.490Z,40.80
2019-03-29T04:53:44.365Z,45.30
2019-03-29T04:56:13.259Z,44.40
2019-03-29T04:58:42.122Z,48.77
2019-03-29T05:01:10.996Z,47.00
2019-03-29T05:03:39.879Z,41.57
2019-03-29T05:06:08.810Z,42.73
2019-03-29T05:08:37.673Z,41.57
2019-03-29T05:11:06.735Z,40.70
2019-03-29T05:13:35.739Z,39.10
2019-03-29T05:16:04.658Z,40.97
2019-03-29T05:18:33.605Z,44.83
2019-03-29T05:21:02.490Z,41.40
2019-03-29T05:23:31.406Z,41.57
2019-03-29T05:26:00.297Z,41.13
2019-03-29T05:28:29.223Z,38.03
2019-03-29T05:30:58.127Z,38.67
2019-03-29T05:33:28.080Z,39.03
2019-03-29T05:35:56.996Z,38.90
2019-03-29T05:38:25.866Z,40.27
2019-03-29T05:40:54.813Z,36.03
2019-03-29T05:43:24.688Z,40.57
2019-03-29T05:45:53.618Z,44.57
2019-03-29T05:48:22.501Z,40.97
2019-03-29T05:50:51.649Z,49.27
2019-03-29T05:53:20.675Z,41.70
2019-03-29T05:55:49.578Z,40.33
2019-03-29T05:58:18.546Z,33.23
2019-03-29T06:00:48.185Z,34.33
2019-03-29T06:03:19.332Z,32.37
2019-03-29T06:05:48.225Z,35.37
2019-03-29T06:08:17.140Z,31.90
2019-03-29T06:10:49.277Z,33.47
2019-03-29T06:13:16.941Z,30.63
2019-03-29T06:15:46.088Z,31.23
2019-03-29T06:18:15.124Z,31.10
2019-03-29T06:20:44.146Z,32.40
2019-03-29T06:23:14.552Z,33.43
2019-03-29T06:25:43.872Z,34.97
2019-03-29T06:28:12.782Z,34.60
2019-03-29T06:30:41.660Z,35.17
2019-03-29T06:33:11.178Z,31.67
2019-03-29T06:35:43.308Z,31.00
2019-03-29T06:38:12.871Z,30.67
2019-03-29T06:40:41.906Z,33.40
2019-03-29T06:43:10.911Z,34.83
2019-03-29T06:45:47.656Z,33.43
2019-03-29T06:48:15.628Z,32.37
2019-03-29T06:50:47.258Z,34.50
2019-03-29T06:53:16.279Z,34.20
2019-03-29T06:55:45.256Z,32.80
2019-03-29T06:58:14.293Z,34.33
2019-03-29T07:00:46.632Z,35.97
2019-03-29T07:03:15.402Z,33.00
2019-03-29T07:05:44.275Z,34.17
2019-03-29T07:08:13.216Z,34.00
2019-03-29T07:10:42.150Z,33.03
2019-03-29T07:13:15.417Z,32.53
2019-03-29T07:15:44.929Z,33.77
2019-03-29T07:18:13.955Z,29.13
2019-03-29T07:20:42.918Z,34.80
2019-03-29T07:23:11.965Z,31.33
2019-03-29T07:25:40.797Z,34.00
2019-03-29T07:28:10.736Z,36.77
2019-03-29T07:30:39.741Z,36.27
2019-03-29T07:33:08.825Z,35.97
2019-03-29T07:35:37.876Z,35.03
2019-03-29T07:38:06.850Z,34.33
2019-03-29T07:40:35.907Z,35.13
2019-03-29T07:43:05.435Z,33.90
2019-03-29T07:45:34.886Z,31.43
2019-03-29T07:48:04.007Z,31.37
2019-03-29T07:50:32.848Z,30.20
2019-03-29T07:53:01.890Z,30.97
2019-03-29T07:55:30.788Z,26.70
2019-03-29T07:57:59.783Z,26.70
2019-03-29T08:00:28.642Z,31.67
2019-03-29T08:02:57.660Z,26.43
2019-03-29T08:05:26.553Z,26.53
2019-03-29T08:07:55.429Z,28.73
2019-03-29T08:10:29.142Z,25.40
2019-03-29T08:12:55.107Z,28.03
2019-03-29T08:15:24.036Z,25.87
2019-03-29T08:17:53.110Z,29.53
2019-03-29T08:20:39.203Z,27.03
2019-03-29T08:22:52.903Z,27.23
2019-03-29T08:25:21.758Z,25.00
2019-03-29T08:27:50.760Z,25.70
2019-03-29T08:30:19.654Z,28.10
2019-03-29T08:32:48.702Z,25.07
2019-03-29T08:35:17.605Z,28.13
2019-03-29T08:37:46.622Z,29.83
2019-03-29T08:40:15.445Z,31.83
2019-03-29T08:42:44.309Z,26.07
2019-03-29T08:45:13.314Z,28.53
2019-03-29T08:47:42.385Z,27.63
2019-03-29T08:50:12.493Z,26.27
2019-03-29T08:52:41.535Z,29.77
2019-03-29T08:55:10.682Z,26.07
2019-03-29T08:57:39.875Z,27.77
2019-03-29T09:00:09.149Z,24.97
2019-03-29T09:02:38.336Z,27.93
2019-03-29T09:05:07.376Z,28.57
2019-03-29T09:07:44.490Z,25.60
2019-03-29T09:10:22.755Z,29.27
2019-03-29T09:12:52.194Z,29.97
2019-03-29T09:15:21.058Z,27.63
2019-03-29T09:17:49.893Z,26.53
2019-03-29T09:20:18.783Z,24.70
2019-03-29T09:22:49.439Z,26.50
2019-03-29T09:25:21.025Z,32.40
2019-03-29T09:27:50.496Z,25.57
2019-03-29T09:30:19.568Z,26.80
2019-03-29T09:32:51.256Z,27.93
2019-03-29T09:35:19.318Z,25.50
2019-03-29T09:37:48.247Z,28.90
2019-03-29T09:40:17.348Z,29.50
2019-03-29T09:42:46.232Z,26.77
2019-03-29T09:45:15.192Z,30.70
2019-03-29T09:47:44.410Z,28.30
2019-03-29T09:50:13.582Z,26.87
2019-03-29T09:52:42.611Z,26.63
2019-03-29T09:55:11.967Z,29.20
2019-03-29T09:57:41.021Z,32.17
2019-03-29T10:00:21.112Z,35.13
2019-03-29T10:02:41.823Z,31.70
2019-03-29T10:05:11.010Z,30.73
2019-03-29T10:07:39.978Z,32.63
2019-03-29T10:10:09.521Z,30.87
2019-03-29T10:12:43.890Z,29.40
2019-03-29T10:15:09.614Z,29.77
2019-03-29T10:17:39.959Z,32.20
2019-03-29T10:20:09.173Z,33.80
2019-03-29T10:22:38.098Z,37.70
2019-03-29T10:25:18.485Z,30.57
2019-03-29T10:27:38.480Z,31.23
2019-03-29T10:30:08.665Z,32.83
2019-03-29T10:32:37.665Z,34.03
2019-03-29T10:35:07.519Z,35.03
2019-03-29T10:37:36.452Z,32.40
2019-03-29T10:40:05.621Z,35.50
2019-03-29T10:42:34.672Z,33.80
2019-03-29T10:45:03.790Z,36.13
2019-03-29T10:47:43.049Z,38.90
2019-03-29T10:50:04.528Z,35.57
2019-03-29T10:52:33.523Z,34.80
2019-03-29T10:55:02.414Z,35.33
2019-03-29T10:57:31.303Z,35.43
2019-03-29T11:00:00.404Z,36.23
2019-03-29T11:02:29.511Z,34.13
2019-03-29T11:04:58.415Z,35.17
2019-03-29T11:07:27.317Z,37.67
2019-03-29T11:09:56.354Z,35.90
2019-03-29T11:12:25.239Z,38.33
2019-03-29T11:14:54.221Z,32.80
2019-03-29T11:17:23.248Z,34.83
2019-03-29T11:19:52.138Z,34.90
2019-03-29T11:22:21.075Z,33.30
2019-03-29T11:24:49.926Z,33.63
2019-03-29T11:27:22.428Z,36.67
2019-03-29T11:29:50.752Z,36.13
2019-03-29T11:32:19.654Z,34.43
2019-03-29T11:34:48.570Z,35.40
2019-03-29T11:37:17.506Z,37.23
2019-03-29T11:39:46.658Z,36.10
2019-03-29T11:42:15.607Z,34.20
2019-03-29T11:44:44.521Z,34.53
2019-03-29T11:47:13.414Z,37.30
2019-03-29T11:49:42.838Z,39.97
2019-03-29T11:52:11.718Z,33.80
2019-03-29T11:54:40.762Z,34.57
2019-03-29T11:57:10.527Z,36.27
2019-03-29T11:59:40.265Z,36.60
2019-03-29T12:02:09.613Z,34.70
2019-03-29T12:04:38.778Z,33.30
2019-03-29T12:07:07.817Z,32.27
2019-03-29T12:09:36.830Z,31.63
2019-03-29T12:12:05.755Z,35.43
2019-03-29T12:14:34.744Z,32.20
2019-03-29T12:17:03.791Z,33.87
2019-03-29T12:19:35.877Z,32.93
2019-03-29T12:22:04.907Z,32.07
2019-03-29T12:24:33.830Z,35.80
2019-03-29T12:27:03.011Z,36.63
2019-03-29T12:29:31.845Z,35.10
2019-03-29T12:32:00.781Z,34.83
2019-03-29T12:34:29.801Z,34.07
2019-03-29T12:36:58.932Z,33.60
2019-03-29T12:39:28.079Z,37.57
2019-03-29T12:41:57.019Z,35.03
2019-03-29T12:44:26.084Z,38.50
2019-03-29T12:46:55.051Z,36.73
2019-03-29T12:49:24.042Z,41.00
2019-03-29T12:51:52.945Z,37.67
2019-03-29T12:54:21.928Z,39.00
2019-03-29T12:56:50.941Z,36.10
2019-03-29T12:59:19.791Z,36.27
2019-03-29T13:01:48.782Z,37.67
2019-03-29T13:04:18.000Z,34.77
2019-03-29T13:06:47.010Z,37.43
2019-03-29T13:09:16.967Z,36.47
2019-03-29T13:11:45.937Z,37.30
2019-03-29T13:14:15.235Z,41.67
2019-03-29T13:16:44.353Z,39.67
2019-03-29T13:19:13.297Z,41.67
2019-03-29T13:21:42.353Z,41.47
2019-03-29T13:24:11.651Z,38.47
2019-03-29T13:26:41.072Z,40.70
2019-03-29T13:29:10.103Z,39.93
2019-03-29T13:31:39.320Z,40.00
2019-03-29T13:34:08.315Z,38.00
2019-03-29T13:36:37.337Z,38.13
2019-03-29T13:39:07.856Z,40.73
2019-03-29T13:41:37.179Z,35.97
2019-03-29T13:44:07.088Z,37.23
2019-03-29T13:46:36.123Z,40.57
2019-03-29T13:49:07.349Z,33.10
2019-03-29T13:51:36.227Z,34.77
2019-03-29T13:54:05.044Z,39.73
2019-03-29T13:56:36.023Z,36.13
2019-03-29T13:59:04.817Z,37.40
2019-03-29T14:01:33.709Z,40.47
2019-03-29T14:04:02.680Z,35.57
2019-03-29T14:06:31.533Z,34.73
2019-03-29T14:09:00.724Z,33.90
2019-03-29T14:11:29.537Z,36.00
2019-03-29T14:13:58.508Z,32.27
2019-03-29T14:16:27.392Z,35.27
2019-03-29T14:18:56.417Z,35.83
2019-03-29T14:21:26.554Z,36.20
2019-03-29T14:23:55.584Z,34.70
2019-03-29T14:26:24.548Z,33.57
2019-03-29T14:28:53.604Z,36.00
2019-03-29T14:31:22.480Z,36.17
2019-03-29T14:33:51.470Z,31.77
2019-03-29T14:36:20.364Z,29.70
2019-03-29T14:38:49.292Z,34.07
2019-03-29T14:41:18.334Z,34.77
2019-03-29T14:43:47.182Z,31.57
2019-03-29T14:46:16.103Z,34.77
2019-03-29T14:48:44.974Z,33.87
2019-03-29T14:51:16.061Z,32.83
2019-03-29T14:53:44.952Z,32.27
2019-03-29T14:56:13.781Z,33.13
2019-03-29T14:58:42.889Z,32.87
2019-03-29T15:01:11.945Z,33.03
2019-03-29T15:03:42.829Z,30.00
2019-03-29T15:06:11.880Z,33.73
2019-03-29T15:08:40.765Z,34.00
2019-03-29T15:11:21.546Z,35.30
2019-03-29T15:13:40.439Z,32.60
2019-03-29T15:16:09.290Z,36.27
2019-03-29T15:18:38.185Z,35.07
2019-03-29T15:21:10.228Z,35.33
2019-03-29T15:23:37.857Z,33.80
2019-03-29T15:26:06.839Z,32.80
2019-03-29T15:28:37.443Z,33.73
2019-03-29T15:31:06.569Z,33.87
2019-03-29T15:33:35.541Z,34.10
2019-03-29T15:36:04.484Z,32.70
2019-03-29T15:38:33.382Z,35.57
2019-03-29T15:41:02.283Z,35.67
2019-03-29T15:43:31.249Z,36.07
2019-03-29T15:46:00.111Z,35.87
2019-03-29T15:48:29.148Z,35.60
2019-03-29T15:50:58.032Z,33.90
2019-03-29T15:53:27.124Z,35.30
2019-03-29T15:55:56.121Z,33.67
2019-03-29T15:58:24.992Z,34.03
2019-03-29T16:00:54.438Z,33.93
2019-03-29T16:03:23.339Z,34.67
2019-03-29T16:05:52.293Z,35.30
2019-03-29T16:08:21.404Z,38.97
2019-03-29T16:10:50.263Z,37.67
2019-03-29T16:13:19.217Z,35.67
2019-03-29T16:15:48.075Z,34.77
2019-03-29T16:18:17.849Z,36.63
2019-03-29T16:20:46.977Z,39.93
2019-03-29T16:23:16.033Z,36.03
2019-03-29T16:25:44.912Z,35.87
2019-03-29T16:28:14.911Z,37.87
2019-03-29T16:30:43.854Z,36.60
2019-03-29T16:33:12.907Z,37.77
2019-03-29T16:35:41.768Z,39.13
2019-03-29T16:38:10.642Z,37.87
2019-03-29T16:40:39.591Z,38.27
2019-03-29T16:43:08.466Z,37.37
2019-03-29T16:45:47.354Z,34.53
2019-03-29T16:48:08.224Z,35.50
2019-03-29T16:50:37.225Z,34.97
2019-03-29T16:53:06.562Z,36.37
2019-03-29T16:55:36.244Z,36.23
2019-03-29T16:58:06.289Z,34.73
2019-03-29T17:00:35.315Z,36.63
2019-03-29T17:03:04.389Z,36.83
2019-03-29T17:05:34.327Z,37.73
2019-03-29T17:08:05.429Z,38.13
2019-03-29T17:10:35.364Z,37.20
2019-03-29T17:13:04.493Z,37.17
2019-03-29T17:15:34.065Z,37.30
2019-03-29T17:18:03.466Z,34.27
2019-03-29T17:20:32.879Z,40.57
2019-03-29T17:23:01.868Z,36.30
2019-03-29T17:25:30.932Z,35.67
2019-03-29T17:28:00.322Z,33.63
2019-03-29T17:30:40.557Z,34.77
2019-03-29T17:33:10.629Z,37.07
2019-03-29T17:35:41.394Z,34.93
2019-03-29T17:38:10.322Z,37.40
2019-03-29T17:40:39.391Z,37.90
2019-03-29T17:43:09.439Z,36.40
2019-03-29T17:45:38.333Z,41.17
2019-03-29T17:48:07.330Z,44.27
2019-03-29T17:50:38.721Z,37.27
2019-03-29T17:53:09.575Z,35.57
2019-03-29T17:55:39.999Z,38.43
2019-03-29T17:58:08.906Z,38.93
2019-03-29T18:00:38.784Z,41.30
2019-03-29T18:03:07.658Z,39.87
2019-03-29T18:05:36.546Z,37.40
2019-03-29T18:08:05.462Z,39.17
2019-03-29T18:10:35.449Z,43.83
2019-03-29T18:13:04.760Z,37.63
2019-03-29T18:15:33.689Z,38.27
2019-03-29T18:18:02.701Z,36.20
2019-03-29T18:20:31.979Z,41.43
2019-03-29T18:23:00.975Z,36.83
2019-03-29T18:25:29.899Z,37.93
2019-03-29T18:27:59.085Z,36.67
2019-03-29T18:30:37.004Z,38.97
2019-03-29T18:33:06.621Z,38.87
2019-03-29T18:35:35.628Z,41.57
2019-03-29T18:38:04.727Z,44.30
2019-03-29T18:40:33.918Z,44.23
2019-03-29T18:43:03.175Z,48.37
2019-03-29T18:45:32.111Z,41.20
2019-03-29T18:48:01.182Z,45.17
2019-03-29T18:50:30.179Z,41.90
2019-03-29T18:52:59.090Z,45.27
2019-03-29T18:55:27.924Z,44.37
2019-03-29T18:57:57.061Z,44.47
2019-03-29T19:00:31.509Z,44.20
2019-03-29T19:03:00.668Z,45.03
2019-03-29T19:05:30.090Z,49.13
2019-03-29T19:07:59.360Z,42.90
2019-03-29T19:10:28.503Z,41.57
2019-03-29T19:12:57.634Z,45.40
2019-03-29T19:15:26.715Z,51.60
2019-03-29T19:17:56.098Z,48.47
2019-03-29T19:20:27.811Z,46.40
2019-03-29T19:22:56.252Z,47.30
2019-03-29T19:25:25.729Z,47.20
2019-03-29T19:27:54.943Z,45.67
2019-03-29T19:30:27.057Z,44.93
2019-03-29T19:32:56.898Z,48.80
2019-03-29T19:35:26.615Z,52.07
2019-03-29T19:38:00.551Z,47.90
2019-03-29T19:40:29.462Z,49.50
2019-03-29T19:42:58.323Z,51.60
2019-03-29T19:45:27.165Z,48.03
2019-03-29T19:47:59.083Z,48.37
2019-03-29T19:50:28.537Z,45.80
2019-03-29T19:52:57.568Z,47.57
2019-03-29T19:55:29.231Z,50.47
2019-03-29T19:57:58.164Z,51.60
2019-03-29T20:00:39.174Z,54.50
2019-03-29T20:03:08.398Z,51.33
2019-03-29T20:05:37.484Z,55.40
2019-03-29T20:08:06.796Z,54.20
2019-03-29T20:10:36.002Z,54.40
2019-03-29T20:13:05.439Z,53.33
2019-03-29T20:15:34.544Z,54.40
2019-03-29T20:18:03.836Z,55.67
2019-03-29T20:20:33.544Z,57.97
2019-03-29T20:23:02.734Z,53.73
2019-03-29T20:25:31.961Z,53.40
2019-03-29T20:28:01.206Z,57.23
2019-03-29T20:30:30.580Z,56.87
2019-03-29T20:32:59.485Z,57.47
2019-03-29T20:35:28.790Z,58.70
2019-03-29T20:37:57.780Z,59.07
2019-03-29T20:40:27.994Z,63.53
2019-03-29T20:42:56.992Z,58.37
2019-03-29T20:45:25.934Z,61.70
2019-03-29T20:47:54.793Z,60.13
2019-03-29T20:50:23.935Z,58.90
2019-03-29T20:52:53.304Z,72.03
2019-03-29T20:55:22.147Z,67.50
2019-03-29T20:57:51.643Z,63.60
2019-03-29T21:00:20.883Z,60.30
2019-03-29T21:02:50.552Z,65.33
2019-03-29T21:05:19.413Z,65.60
2019-03-29T21:07:48.517Z,67.97
2019-03-29T21:10:17.617Z,65.30
2019-03-29T21:12:47.573Z,66.22
2019-03-29T21:15:17.056Z,68.50
2019-03-29T21:17:56.743Z,65.23
2019-03-29T21:20:16.942Z,71.50
2019-03-29T21:22:46.366Z,67.17
2019-03-29T21:25:15.354Z,65.87
2019-03-29T21:27:44.257Z,66.73
2019-03-29T21:30:15.114Z,68.77
2019-03-29T21:32:44.225Z,70.97
2019-03-29T21:35:13.202Z,73.10
2019-03-29T21:37:42.148Z,77.40
2019-03-29T21:40:11.438Z,75.17
2019-03-29T21:42:42.415Z,72.50
2019-03-29T21:45:27.699Z,71.80
2019-03-29T21:47:45.589Z,71.47
2019-03-29T21:50:15.587Z,77.27
2019-03-29T21:52:45.054Z,75.07
2019-03-29T21:55:14.763Z,70.73
2019-03-29T21:57:43.747Z,78.65
2019-03-29T22:00:14.557Z,78.57
2019-03-29T22:02:44.566Z,78.23
2019-03-29T22:05:14.199Z,76.97
2019-03-29T22:07:43.266Z,77.60
2019-03-29T22:10:12.309Z,81.73
2019-03-29T22:12:43.223Z,73.50
2019-03-29T22:15:13.209Z,75.10
2019-03-29T22:17:42.235Z,76.73
2019-03-29T22:20:11.616Z,72.33
2019-03-29T22:22:40.882Z,79.53
2019-03-29T22:25:10.245Z,81.47
2019-03-29T22:27:41.093Z,77.43
2019-03-29T22:30:10.802Z,84.40
2019-03-29T22:32:41.141Z,80.70
2019-03-29T22:35:10.123Z,81.70
2019-03-29T22:37:39.244Z,75.13
2019-03-29T22:40:08.766Z,83.20
2019-03-29T22:42:37.741Z,82.10
2019-03-29T22:45:10.932Z,88.50
2019-03-29T22:47:43.466Z,91.17
2019-03-29T22:50:12.877Z,85.27
2019-03-29T22:52:41.806Z,85.07
2019-03-29T22:55:10.899Z,86.23
2019-03-29T22:57:40.419Z,81.80
2019-03-29T23:00:19.689Z,83.07
2019-03-29T23:02:51.414Z,81.53
2019-03-29T23:05:21.536Z,84.87
2019-03-29T23:07:50.515Z,82.20
2019-03-29T23:10:19.430Z,86.60
2019-03-29T23:12:48.279Z,85.10
2019-03-29T23:15:17.162Z,87.73
2019-03-29T23:17:46.038Z,83.53
2019-03-29T23:20:15.281Z,87.97
2019-03-29T23:22:44.124Z,79.73
2019-03-29T23:25:13.006Z,84.53
2019-03-29T23:27:42.012Z,83.27
2019-03-29T23:30:11.314Z,85.77
2019-03-29T23:32:40.390Z,79.43
2019-03-29T23:35:11.144Z,82.80
2019-03-29T23:37:42.025Z,74.43
2019-03-29T23:40:11.226Z,75.47
2019-03-29T23:42:41.156Z,81.23
2019-03-29T23:45:11.162Z,80.13
2019-03-29T23:47:43.530Z,79.93
2019-03-29T23:50:13.496Z,79.37
2019-03-29T23:52:42.438Z,77.23
2019-03-29T23:55:11.490Z,83.87
2019-03-29T23:57:40.730Z,88.57
